Flight Track Log - Related Links

Times and Time Zones

All times are in EDT time to prevent confusion due to time zone crossing. See the FSR411 flight status page for this flight to view local times or setup timezone preferences in your user account.

Time Position Orientation Groundspeed Altitude Reporting Facility
EDT Latitude Longitude Course Direction KTS MPH feet Rate Location/Type
Tue 05:14:43 PM 39.9811 -88.1786 65° Northeast 232 267 27,000  Level Chicago Center
Tue 05:15:45 PM 39.9967 -88.0869 77° East 260 299 7,200 -8,419 Descending Chicago Center
Tue 05:16:47 PM 40.0306 -87.9850 67° East 304 350 9,600 2,806 Climbing Chicago Center
Tue 05:17:49 PM 40.0681 -87.8733 66° East 318 366 13,000 3,435 Climbing Chicago Center
Tue 05:18:51 PM 40.1225 -87.7219 65° Northeast 377 434 16,700 3,242 Climbing Chicago Center
Tue 05:19:00 PM 40.2648 -87.5263 75° East  Level FlightAware Approximate
Tue 05:19:53 PM 40.1714 -87.5817 65° Northeast 414 476 19,700  Level Chicago Center
Tue 05:20:00 PM 40.3063 -87.4037 65° Northeast  Level FlightAware Approximate
Tue 05:20:55 PM 40.2261 -87.4267 65° Northeast 456 525 21,700  Level Chicago Center
Tue 05:21:57 PM 40.2836 -87.2658 65° Northeast 481 554 24,900 2,064 Climbing Chicago Center
Tue 05:23:00 PM 40.3386 -87.1050 66° East 485 558 26,000 528 Climbing Chicago Center
Tue 05:24:02 PM 40.3983 -86.9319 66° East 515 593 26,000 339 Level Chicago Center
Tue 05:25:04 PM 40.4558 -86.7622 66° East 509 586 26,700 484 Climbing Chicago Center
Tue 05:26:06 PM 40.5264 -86.5556 66° East 514 592 27,000 145 Climbing Chicago Center
Tue 05:27:08 PM 40.5856 -86.3819 66° East 518 596 27,000  Level Chicago Center
Tue 05:28:10 PM 40.6444 -86.2061 66° East 522 601 27,000 -435 Level Chicago Center
Tue 05:29:12 PM 40.7083 -86.0111 67° East 522 601 26,100 -1,161 Descending Chicago Center
Tue 05:30:14 PM 40.7664 -85.8397 66° East 517 595 24,600 -1,016 Descending Chicago Center
Tue 05:31:16 PM 40.8214 -85.6697 67° East 511 588 24,000 -774 Descending Chicago Center
Tue 05:32:18 PM 40.8761 -85.5014 67° East 504 580 23,000 -1,392 Descending Chicago Center
Tue 05:33:21 PM 40.9294 -85.3403 66° East 491 565 21,100 -1,488 Descending Chicago Center
Tue 05:34:23 PM 40.9928 -85.1431 67° East 490 564 19,900 -1,016 Descending Chicago Center
Tue 05:35:25 PM 41.0433 -84.9806 68° East 485 558 19,000 -919 Descending Chicago Center
Tue 05:36:27 PM 41.0933 -84.8222 67° East 474 545 18,000 -968 Descending Chicago Center
Tue 05:37:29 PM 41.1411 -84.6658 68° East 464 534 17,000 -484 Descending Chicago Center
Tue 05:38:31 PM 41.1892 -84.5108 68° East 458 527 17,000  Level Chicago Center
Tue 05:39:33 PM 41.2456 -84.3258 68° East 454 522 17,000 -435 Level Chicago Center
Tue 05:40:35 PM 41.2917 -84.1714 68° East 451 519 16,100 -871 Descending Chicago Center
Tue 05:41:37 PM 41.3367 -84.0264 68° East 430 495 15,200 -919 Descending Chicago Center
Tue 05:42:39 PM 41.3786 -83.8825 69° East 422 486 14,200 -960 Descending Chicago Center
Tue 05:43:42 PM 41.4228 -83.7433 67° East 416 479 13,200 -1,020 Descending Chicago Center
Tue 05:44:19 PM 41.4503 -83.6433 70° East 402 463 12,500 -1,079 Descending Cleveland Center
Tue 05:45:11 PM 41.4958 -83.5269 62° Northeast 398 458 11,600 -989 Descending Cleveland Center
Tue 05:45:50 PM 41.5294 -83.4428 62° Northeast 394 453 11,000 -968 Descending Cleveland Center
Tue 05:46:13 PM 41.5475 -83.3989 61° Northeast 398 458 10,600 -806 Descending Cleveland Center
Tue 05:46:57 PM 41.5869 -83.2972 63° Northeast 390 449 10,100 -581 Descending Cleveland Center
Tue 05:47:15 PM 41.5972 -83.2731 60° Northeast 389 448 10,000  Descending Cleveland Center
Tue 05:47:58 PM 41.6342 -83.1753 63° Northeast 372 428 10,100 97 Climbing Cleveland Center
Tue 05:48:17 PM 41.6436 -83.1525 61° Northeast 371 427 10,100 -98 Level Cleveland Center
Tue 05:48:59 PM 41.6808 -83.0589 62° Northeast 350 403 10,000 -97 Descending Cleveland Center
Tue 05:49:19 PM 41.6900 -83.0372 60° Northeast 361 415 10,000  Level Cleveland Center
Tue 05:49:55 PM 41.7222 -82.9553 62° Northeast 347 399 10,000  Level Cleveland Center
Tue 05:50:21 PM 41.7472 -82.9022 58° Northeast 351 404 10,000  Level Cleveland Center
Tue 05:50:56 PM 41.7742 -82.8475 57° Northeast 344 396 10,000 -581 Level Cleveland Center
Tue 05:51:23 PM 41.8056 -82.8164 36° Northeast 312 359 9,400 -1,418 Descending Cleveland Center
Tue 05:51:51 PM 41.8422 -82.8061 12° North 293 337 8,700 -1,524 Descending Cleveland Center
Tue 05:52:26 PM 41.8867 -82.8039 North 300 345 7,800 -1,967 Descending Cleveland Center
Tue 05:52:52 PM 41.9303 -82.8036 360° North 290 334 6,700 -1,935 Descending Cleveland Center
Tue 05:53:28 PM 41.9672 -82.7992 North 297 342 5,800 -1,881 Descending Cleveland Center
Tue 05:53:59 PM 42.0167 -82.7983 North 290 334 4,600 -1,645 Descending Cleveland Center
Tue 05:54:30 PM 42.0467 -82.7964 North 293 337 4,100 -590 Descending Cleveland Center
Tue 05:55:00 PM 42.0944 -82.7944 North 283 326 4,000 -97 Descending Cleveland Center
Tue 05:55:32 PM 42.1364 -82.8103 344° North 278 320 4,000  Level Cleveland Center
Tue 05:56:01 PM 42.1706 -82.8383 329° Northwest 274 315 4,000 -194 Level Cleveland Center
Tue 05:56:34 PM 42.2033 -82.8594 334° Northwest 276 318 3,800 -536 Descending Cleveland Center
Tue 05:56:57 PM 42.2303 -82.8828 327° Northwest 271 312 3,500 -774 Descending Cleveland Center
Tue 05:57:36 PM 42.2728 -82.9011 342° North 276 318 3,000 -492 Descending Cleveland Center
Tue 05:57:58 PM 42.3033 -82.9125 345° North 277 319 3,000  Level Cleveland Center
Tue 05:58:38 PM 42.3425 -82.9278 344° North 267 307 3,000 -358 Level Cleveland Center
Tue 05:59:05 PM 42.3725 -82.9414 341° North 205 236 2,600 -774 Descending Cleveland Center
Tue 05:59:40 PM 42.3953 -82.9497 345° North 215 247 2,200 -529 Descending Cleveland Center
Tue 06:00:13 PM 42.4244 -82.9739 329° Northwest 175 201 2,000 -194 Descending Cleveland Center
Tue 06:00:42 PM 42.4472 -82.9886 335° Northwest 191 220 2,000 -295 Level Cleveland Center
Tue 06:01:14 PM 42.4594 -83.0125 305° West 142 163 1,700 -677 Descending Cleveland Center
Tue 06:01:44 PM 42.4494 -83.0278 228° Southwest 165 190 1,300 -689 Descending Cleveland Center
Tue 06:02:15 PM 42.4308 -83.0286 182° South 121 139 1,000 -387 Descending Cleveland Center
Tue 06:02:46 PM 42.4208 -83.0247 164° South 143 165 900 -194 Descending Cleveland Center

Login

Don't have an account? Register now (free) for customized features, flight alerts, and more!